KLUL/LUL METAR and TAF weather

Enter ICAO airport designator
Station Type Date Time Source
KLUL METAR 2019/04/20 22:15 UTC NOAA

KLUL 202215Z AUTO 30013G17KT 10SM CLR 21/01 A2996 RMK A02 T02080007


Station Type Date Time Source
KLUL Decoded METAR 2019/04/20 22:15 UTC NOAA

Station name not available
Apr 20, 2019 - 06:15 PM EDT / 2019.04.20 2215 UTC
Wind: from the WNW (300 degrees) at 15 MPH (13 KT) gusting to 20 MPH (17 KT):0
Visibility: 10 mile(s):0
Sky conditions: clear
Temperature: 69.4 F (20.8 C)
Dew Point: 33.3 F (0.7 C)
Relative Humidity: 26%
Pressure (altimeter): 29.96 in. Hg (1014 hPa)
ob: KLUL 202215Z AUTO 30013G17KT 10SM CLR 21/01 A2996 RMK A02 T02080007
cycle: 22

Station Type Date Time Source
KLUL TAF UTC NOAA

Error!

Example: see airport list